Seattle, Washington
Traffic Map
Current Weather Conditions
Seattle, Washington
Clear
Clear
80°
Feels Like: 80°
Wind Chill: 80° Ceiling: Unl
Heat Index: 80° Visibility: 10mi
Dew Point: 50° Wind: 7mph
Humidity: 35% Direction: 330° (NNW)
Pressure: 30.09in Gusts: 0mph
Raw Report DataKBFI 301753Z 33006KT 10SM CLR 27/10 A3009 RMK AO2 SLP189 T02670100 10267 20183 58006
Traffic Incident Summary
Active as of:
Severity:
Category:
InformationThere was an issue retrieving the traffic information for this location. Please try a different location or try again shortly.
Advertisements
Track Severe Weather on mobile